sensor_id;sensor_type;location;lat;lon;timestamp;temperature;humidity
4509;DHT22;2267;48.816;9.230;2023-08-01T00:01:46;21.10;99.90
4509;DHT22;2267;48.816;9.230;2023-08-01T00:04:13;21.10;99.90
4509;DHT22;2267;48.816;9.230;2023-08-01T00:06:40;21.10;99.90
4509;DHT22;2267;48.816;9.230;2023-08-01T00:09:07;21.10;99.90
4509;DHT22;2267;48.816;9.230;2023-08-01T00:11:34;21.10;99.90
4509;DHT22;2267;48.816;9.230;2023-08-01T00:14:01;21.20;99.90
4509;DHT22;2267;48.816;9.230;2023-08-01T00:16:28;21.10;99.90
4509;DHT22;2267;48.816;9.230;2023-08-01T00:18:55;21.10;99.90
4509;DHT22;2267;48.816;9.230;2023-08-01T00:21:22;21.10;99.90
4509;DHT22;2267;48.816;9.230;2023-08-01T00:23:49;21.10;99.90
4509;DHT22;2267;48.816;9.230;2023-08-01T00:26:16;21.10;99.90
4509;DHT22;2267;48.816;9.230;2023-08-01T00:28:42;21.20;99.90
4509;DHT22;2267;48.816;9.230;2023-08-01T00:31:09;21.20;99.90
4509;DHT22;2267;48.816;9.230;2023-08-01T00:33:36;21.20;99.90
4509;DHT22;2267;48.816;9.230;2023-08-01T00:36:03;21.20;99.90
4509;DHT22;2267;48.816;9.230;2023-08-01T00:38:36;21.20;99.90
4509;DHT22;2267;48.816;9.230;2023-08-01T00:41:03;21.20;99.90
4509;DHT22;2267;48.816;9.230;2023-08-01T00:43:30;21.10;99.90
4509;DHT22;2267;48.816;9.230;2023-08-01T00:46:00;21.20;99.90
4509;DHT22;2267;48.816;9.230;2023-08-01T00:48:30;21.20;99.90
4509;DHT22;2267;48.816;9.230;2023-08-01T00:50:59;21.10;99.90
4509;DHT22;2267;48.816;9.230;2023-08-01T00:53:26;21.10;99.90
4509;DHT22;2267;48.816;9.230;2023-08-01T00:55:54;21.10;99.90
4509;DHT22;2267;48.816;9.230;2023-08-01T00:58:21;21.10;99.90
4509;DHT22;2267;48.816;9.230;2023-08-01T01:00:48;21.10;99.90
4509;DHT22;2267;48.816;9.230;2023-08-01T01:03:16;21.10;99.90
4509;DHT22;2267;48.816;9.230;2023-08-01T01:05:52;21.10;99.90
4509;DHT22;2267;48.816;9.230;2023-08-01T01:08:20;21.10;99.90
4509;DHT22;2267;48.816;9.230;2023-08-01T01:10:47;21.10;99.90
4509;DHT22;2267;48.816;9.230;2023-08-01T01:13:14;21.00;99.90
4509;DHT22;2267;48.816;9.230;2023-08-01T01:15:41;21.00;99.90
4509;DHT22;2267;48.816;9.230;2023-08-01T01:18:08;21.00;99.90
4509;DHT22;2267;48.816;9.230;2023-08-01T01:20:35;21.00;99.90
4509;DHT22;2267;48.816;9.230;2023-08-01T01:23:06;21.00;99.90
4509;DHT22;2267;48.816;9.230;2023-08-01T01:25:35;21.00;99.90
4509;DHT22;2267;48.816;9.230;2023-08-01T01:28:04;21.00;99.90
4509;DHT22;2267;48.816;9.230;2023-08-01T01:30:33;21.00;99.90
4509;DHT22;2267;48.816;9.230;2023-08-01T01:33:04;21.00;99.90
4509;DHT22;2267;48.816;9.230;2023-08-01T01:35:33;21.00;99.90
4509;DHT22;2267;48.816;9.230;2023-08-01T01:38:01;21.00;99.90
4509;DHT22;2267;48.816;9.230;2023-08-01T01:40:32;20.90;99.90
4509;DHT22;2267;48.816;9.230;2023-08-01T01:43:00;20.90;99.90
4509;DHT22;2267;48.816;9.230;2023-08-01T01:45:27;20.90;99.90
4509;DHT22;2267;48.816;9.230;2023-08-01T01:47:54;21.00;99.90
4509;DHT22;2267;48.816;9.230;2023-08-01T01:50:21;21.00;99.90
4509;DHT22;2267;48.816;9.230;2023-08-01T01:52:48;20.90;99.90
4509;DHT22;2267;48.816;9.230;2023-08-01T01:55:15;20.90;99.90
4509;DHT22;2267;48.816;9.230;2023-08-01T01:57:41;20.90;99.90
4509;DHT22;2267;48.816;9.230;2023-08-01T02:00:09;20.90;99.90
4509;DHT22;2267;48.816;9.230;2023-08-01T02:02:38;20.90;99.90
4509;DHT22;2267;48.816;9.230;2023-08-01T02:05:05;20.90;99.90
4509;DHT22;2267;48.816;9.230;2023-08-01T02:07:32;20.90;99.90
4509;DHT22;2267;48.816;9.230;2023-08-01T02:10:01;20.90;99.90
4509;DHT22;2267;48.816;9.230;2023-08-01T02:12:28;20.90;99.90
4509;DHT22;2267;48.816;9.230;2023-08-01T02:14:58;20.90;99.90
4509;DHT22;2267;48.816;9.230;2023-08-01T02:17:25;20.90;99.90
4509;DHT22;2267;48.816;9.230;2023-08-01T02:19:52;20.90;99.90
4509;DHT22;2267;48.816;9.230;2023-08-01T02:22:19;20.90;99.90
4509;DHT22;2267;48.816;9.230;2023-08-01T02:24:46;20.90;99.90
4509;DHT22;2267;48.816;9.230;2023-08-01T02:27:13;20.90;99.90
4509;DHT22;2267;48.816;9.230;2023-08-01T02:29:40;20.90;99.90
4509;DHT22;2267;48.816;9.230;2023-08-01T02:32:07;20.90;99.90
4509;DHT22;2267;48.816;9.230;2023-08-01T02:34:34;20.90;99.90
4509;DHT22;2267;48.816;9.230;2023-08-01T02:37:01;20.90;99.90
4509;DHT22;2267;48.816;9.230;2023-08-01T02:39:27;20.90;99.90
4509;DHT22;2267;48.816;9.230;2023-08-01T02:41:54;20.90;99.90
4509;DHT22;2267;48.816;9.230;2023-08-01T02:44:21;20.90;99.90
4509;DHT22;2267;48.816;9.230;2023-08-01T02:46:48;20.90;99.90
4509;DHT22;2267;48.816;9.230;2023-08-01T02:49:15;20.90;99.90
4509;DHT22;2267;48.816;9.230;2023-08-01T02:51:42;20.90;99.90
4509;DHT22;2267;48.816;9.230;2023-08-01T02:54:08;20.80;99.90
4509;DHT22;2267;48.816;9.230;2023-08-01T02:56:35;20.80;99.90
4509;DHT22;2267;48.816;9.230;2023-08-01T02:59:08;20.80;99.90
4509;DHT22;2267;48.816;9.230;2023-08-01T03:01:36;20.80;99.90
4509;DHT22;2267;48.816;9.230;2023-08-01T03:04:04;20.80;99.90
4509;DHT22;2267;48.816;9.230;2023-08-01T03:06:34;20.80;99.90
4509;DHT22;2267;48.816;9.230;2023-08-01T03:09:01;20.80;99.90
4509;DHT22;2267;48.816;9.230;2023-08-01T03:11:28;20.80;99.90
4509;DHT22;2267;48.816;9.230;2023-08-01T03:13:55;20.80;99.90
4509;DHT22;2267;48.816;9.230;2023-08-01T03:16:21;20.80;99.90
4509;DHT22;2267;48.816;9.230;2023-08-01T03:18:48;20.80;99.90
4509;DHT22;2267;48.816;9.230;2023-08-01T03:21:15;20.80;99.90
4509;DHT22;2267;48.816;9.230;2023-08-01T03:23:42;20.80;99.90
4509;DHT22;2267;48.816;9.230;2023-08-01T03:26:09;20.80;99.90
4509;DHT22;2267;48.816;9.230;2023-08-01T03:28:36;20.80;99.90
4509;DHT22;2267;48.816;9.230;2023-08-01T03:31:03;20.80;99.90
4509;DHT22;2267;48.816;9.230;2023-08-01T03:33:30;20.70;99.90
4509;DHT22;2267;48.816;9.230;2023-08-01T03:35:59;20.80;99.90
4509;DHT22;2267;48.816;9.230;2023-08-01T03:38:25;20.80;99.90
4509;DHT22;2267;48.816;9.230;2023-08-01T03:40:52;20.80;99.90
4509;DHT22;2267;48.816;9.230;2023-08-01T03:43:19;20.70;99.90
4509;DHT22;2267;48.816;9.230;2023-08-01T03:45:51;20.70;99.90
4509;DHT22;2267;48.816;9.230;2023-08-01T03:48:17;20.70;99.90
4509;DHT22;2267;48.816;9.230;2023-08-01T03:50:44;20.70;99.90
4509;DHT22;2267;48.816;9.230;2023-08-01T03:53:11;20.70;99.90
4509;DHT22;2267;48.816;9.230;2023-08-01T03:55:38;20.70;99.90
4509;DHT22;2267;48.816;9.230;2023-08-01T03:58:05;20.70;99.90
4509;DHT22;2267;48.816;9.230;2023-08-01T04:00:31;20.70;99.90
4509;DHT22;2267;48.816;9.230;2023-08-01T04:02:59;20.70;99.90
4509;DHT22;2267;48.816;9.230;2023-08-01T04:05:27;20.70;99.90
4509;DHT22;2267;48.816;9.230;2023-08-01T04:07:54;20.70;99.90
4509;DHT22;2267;48.816;9.230;2023-08-01T04:10:24;20.70;99.90
4509;DHT22;2267;48.816;9.230;2023-08-01T04:12:50;20.70;99.90
4509;DHT22;2267;48.816;9.230;2023-08-01T04:15:17;20.60;99.90
4509;DHT22;2267;48.816;9.230;2023-08-01T04:17:44;20.60;99.90
4509;DHT22;2267;48.816;9.230;2023-08-01T04:20:11;20.60;99.90
4509;DHT22;2267;48.816;9.230;2023-08-01T04:22:39;20.60;99.90
4509;DHT22;2267;48.816;9.230;2023-08-01T04:25:06;20.60;99.90
4509;DHT22;2267;48.816;9.230;2023-08-01T04:27:33;20.50;99.90
4509;DHT22;2267;48.816;9.230;2023-08-01T04:30:00;20.50;99.90
4509;DHT22;2267;48.816;9.230;2023-08-01T04:32:27;20.50;99.90
4509;DHT22;2267;48.816;9.230;2023-08-01T04:34:54;20.50;99.90
4509;DHT22;2267;48.816;9.230;2023-08-01T04:37:21;20.50;99.90
4509;DHT22;2267;48.816;9.230;2023-08-01T04:39:49;20.40;99.90
4509;DHT22;2267;48.816;9.230;2023-08-01T04:42:16;20.40;99.90
4509;DHT22;2267;48.816;9.230;2023-08-01T04:44:43;20.40;99.90
4509;DHT22;2267;48.816;9.230;2023-08-01T04:47:10;20.40;99.90
4509;DHT22;2267;48.816;9.230;2023-08-01T04:49:37;20.40;99.90
4509;DHT22;2267;48.816;9.230;2023-08-01T04:52:04;20.50;99.90
4509;DHT22;2267;48.816;9.230;2023-08-01T04:54:34;20.50;99.90
4509;DHT22;2267;48.816;9.230;2023-08-01T04:57:01;20.50;99.90
4509;DHT22;2267;48.816;9.230;2023-08-01T04:59:27;20.50;99.90
4509;DHT22;2267;48.816;9.230;2023-08-01T05:01:55;20.50;99.90
4509;DHT22;2267;48.816;9.230;2023-08-01T05:04:21;20.50;99.90
4509;DHT22;2267;48.816;9.230;2023-08-01T05:06:48;20.60;99.90
4509;DHT22;2267;48.816;9.230;2023-08-01T05:09:15;20.60;99.90
4509;DHT22;2267;48.816;9.230;2023-08-01T05:11:42;20.70;99.90
4509;DHT22;2267;48.816;9.230;2023-08-01T05:14:09;20.70;99.90
4509;DHT22;2267;48.816;9.230;2023-08-01T05:16:35;20.70;99.90
4509;DHT22;2267;48.816;9.230;2023-08-01T05:19:02;20.70;99.90
4509;DHT22;2267;48.816;9.230;2023-08-01T05:21:29;20.70;99.90
4509;DHT22;2267;48.816;9.230;2023-08-01T05:23:56;20.70;99.90
4509;DHT22;2267;48.816;9.230;2023-08-01T05:26:23;20.70;99.90
4509;DHT22;2267;48.816;9.230;2023-08-01T05:28:50;20.70;99.90
4509;DHT22;2267;48.816;9.230;2023-08-01T05:31:16;20.70;99.90
4509;DHT22;2267;48.816;9.230;2023-08-01T05:33:43;20.70;99.90
4509;DHT22;2267;48.816;9.230;2023-08-01T05:36:10;20.80;99.90
4509;DHT22;2267;48.816;9.230;2023-08-01T05:38:37;20.80;99.90
4509;DHT22;2267;48.816;9.230;2023-08-01T05:41:04;20.80;99.90
4509;DHT22;2267;48.816;9.230;2023-08-01T05:43:31;20.80;99.90
4509;DHT22;2267;48.816;9.230;2023-08-01T05:45:58;20.80;99.90
4509;DHT22;2267;48.816;9.230;2023-08-01T05:48:25;20.80;99.90
4509;DHT22;2267;48.816;9.230;2023-08-01T05:50:51;20.80;99.90
4509;DHT22;2267;48.816;9.230;2023-08-01T05:53:19;20.90;99.90
4509;DHT22;2267;48.816;9.230;2023-08-01T05:55:46;20.90;99.90
4509;DHT22;2267;48.816;9.230;2023-08-01T05:58:13;20.90;99.90
4509;DHT22;2267;48.816;9.230;2023-08-01T06:00:40;20.90;99.90
4509;DHT22;2267;48.816;9.230;2023-08-01T06:03:07;20.90;99.90
4509;DHT22;2267;48.816;9.230;2023-08-01T06:05:35;20.90;99.90
4509;DHT22;2267;48.816;9.230;2023-08-01T06:08:02;20.90;99.90
4509;DHT22;2267;48.816;9.230;2023-08-01T06:10:30;20.90;99.90
4509;DHT22;2267;48.816;9.230;2023-08-01T06:12:56;20.90;99.90
4509;DHT22;2267;48.816;9.230;2023-08-01T06:15:23;20.90;99.90
4509;DHT22;2267;48.816;9.230;2023-08-01T06:17:50;20.90;99.90
4509;DHT22;2267;48.816;9.230;2023-08-01T06:20:17;20.90;99.90
4509;DHT22;2267;48.816;9.230;2023-08-01T06:22:44;20.90;99.90
4509;DHT22;2267;48.816;9.230;2023-08-01T06:25:10;20.90;99.90
4509;DHT22;2267;48.816;9.230;2023-08-01T06:27:40;20.80;99.90
4509;DHT22;2267;48.816;9.230;2023-08-01T06:30:07;20.80;99.90
4509;DHT22;2267;48.816;9.230;2023-08-01T06:32:34;20.70;99.90
4509;DHT22;2267;48.816;9.230;2023-08-01T06:35:01;20.70;99.90
4509;DHT22;2267;48.816;9.230;2023-08-01T06:37:27;20.70;99.90
4509;DHT22;2267;48.816;9.230;2023-08-01T06:39:55;20.70;99.90
4509;DHT22;2267;48.816;9.230;2023-08-01T06:42:22;20.70;99.90
4509;DHT22;2267;48.816;9.230;2023-08-01T06:44:49;20.60;99.90
4509;DHT22;2267;48.816;9.230;2023-08-01T06:47:15;20.60;99.90
4509;DHT22;2267;48.816;9.230;2023-08-01T06:49:42;20.60;99.90
4509;DHT22;2267;48.816;9.230;2023-08-01T06:52:10;20.50;99.90
4509;DHT22;2267;48.816;9.230;2023-08-01T06:54:37;20.50;99.90
4509;DHT22;2267;48.816;9.230;2023-08-01T06:57:06;20.50;99.90
4509;DHT22;2267;48.816;9.230;2023-08-01T06:59:33;20.50;99.90
4509;DHT22;2267;48.816;9.230;2023-08-01T07:02:01;20.40;99.90
4509;DHT22;2267;48.816;9.230;2023-08-01T07:04:28;20.40;99.90
4509;DHT22;2267;48.816;9.230;2023-08-01T07:06:55;20.40;99.90
4509;DHT22;2267;48.816;9.230;2023-08-01T07:09:22;20.40;99.90
4509;DHT22;2267;48.816;9.230;2023-08-01T07:11:49;20.30;99.90
4509;DHT22;2267;48.816;9.230;2023-08-01T07:14:16;20.30;99.90
4509;DHT22;2267;48.816;9.230;2023-08-01T07:16:42;20.30;99.90
4509;DHT22;2267;48.816;9.230;2023-08-01T07:19:09;20.30;99.90
4509;DHT22;2267;48.816;9.230;2023-08-01T07:21:36;20.20;99.90
4509;DHT22;2267;48.816;9.230;2023-08-01T07:24:04;20.20;99.90
4509;DHT22;2267;48.816;9.230;2023-08-01T07:26:31;20.20;99.90
4509;DHT22;2267;48.816;9.230;2023-08-01T07:28:57;20.10;99.90
4509;DHT22;2267;48.816;9.230;2023-08-01T07:31:24;20.10;99.90
4509;DHT22;2267;48.816;9.230;2023-08-01T07:33:51;20.10;99.90
4509;DHT22;2267;48.816;9.230;2023-08-01T07:36:18;20.10;99.90
4509;DHT22;2267;48.816;9.230;2023-08-01T07:38:45;20.00;99.90
4509;DHT22;2267;48.816;9.230;2023-08-01T07:41:12;19.90;99.90
4509;DHT22;2267;48.816;9.230;2023-08-01T07:43:39;19.90;99.90
4509;DHT22;2267;48.816;9.230;2023-08-01T07:46:05;19.80;99.90
4509;DHT22;2267;48.816;9.230;2023-08-01T07:48:35;19.80;99.90
4509;DHT22;2267;48.816;9.230;2023-08-01T07:51:02;19.70;99.90
4509;DHT22;2267;48.816;9.230;2023-08-01T07:53:31;19.70;99.90
4509;DHT22;2267;48.816;9.230;2023-08-01T07:55:57;19.60;99.90
4509;DHT22;2267;48.816;9.230;2023-08-01T07:58:24;19.50;99.90
4509;DHT22;2267;48.816;9.230;2023-08-01T08:00:51;19.40;99.90
4509;DHT22;2267;48.816;9.230;2023-08-01T08:03:18;19.30;99.90
4509;DHT22;2267;48.816;9.230;2023-08-01T08:05:45;19.20;99.90
4509;DHT22;2267;48.816;9.230;2023-08-01T08:08:12;19.10;99.90
4509;DHT22;2267;48.816;9.230;2023-08-01T08:10:39;19.10;99.90
4509;DHT22;2267;48.816;9.230;2023-08-01T08:13:09;19.10;99.90
4509;DHT22;2267;48.816;9.230;2023-08-01T08:15:36;19.10;99.90
4509;DHT22;2267;48.816;9.230;2023-08-01T08:18:02;19.10;99.90
4509;DHT22;2267;48.816;9.230;2023-08-01T08:20:34;19.10;99.90
4509;DHT22;2267;48.816;9.230;2023-08-01T08:23:06;19.20;99.90
4509;DHT22;2267;48.816;9.230;2023-08-01T08:25:33;19.20;99.90
4509;DHT22;2267;48.816;9.230;2023-08-01T08:28:00;19.30;99.90
4509;DHT22;2267;48.816;9.230;2023-08-01T08:30:27;19.30;99.90
4509;DHT22;2267;48.816;9.230;2023-08-01T08:32:53;19.30;99.90
4509;DHT22;2267;48.816;9.230;2023-08-01T08:35:20;19.30;99.90
4509;DHT22;2267;48.816;9.230;2023-08-01T08:37:47;19.20;99.90
4509;DHT22;2267;48.816;9.230;2023-08-01T08:40:14;19.30;99.90
4509;DHT22;2267;48.816;9.230;2023-08-01T08:42:41;19.30;99.90
4509;DHT22;2267;48.816;9.230;2023-08-01T08:45:09;19.30;99.90
4509;DHT22;2267;48.816;9.230;2023-08-01T08:47:38;19.30;99.90
4509;DHT22;2267;48.816;9.230;2023-08-01T08:50:09;19.30;99.90
4509;DHT22;2267;48.816;9.230;2023-08-01T08:52:37;19.30;99.90
4509;DHT22;2267;48.816;9.230;2023-08-01T08:55:04;19.40;99.90
4509;DHT22;2267;48.816;9.230;2023-08-01T08:57:32;19.40;99.90
4509;DHT22;2267;48.816;9.230;2023-08-01T09:00:03;19.50;99.90
4509;DHT22;2267;48.816;9.230;2023-08-01T09:02:33;19.60;99.90
4509;DHT22;2267;48.816;9.230;2023-08-01T09:05:00;19.60;99.90
4509;DHT22;2267;48.816;9.230;2023-08-01T09:07:29;19.60;99.90
4509;DHT22;2267;48.816;9.230;2023-08-01T09:09:57;19.60;99.90
4509;DHT22;2267;48.816;9.230;2023-08-01T09:12:24;19.60;99.90
4509;DHT22;2267;48.816;9.230;2023-08-01T09:14:51;19.60;99.90
4509;DHT22;2267;48.816;9.230;2023-08-01T09:17:19;19.60;99.90
4509;DHT22;2267;48.816;9.230;2023-08-01T09:19:46;19.60;99.90
4509;DHT22;2267;48.816;9.230;2023-08-01T09:22:14;19.70;99.90
4509;DHT22;2267;48.816;9.230;2023-08-01T09:24:51;19.60;99.90
4509;DHT22;2267;48.816;9.230;2023-08-01T09:27:20;19.60;99.90
4509;DHT22;2267;48.816;9.230;2023-08-01T09:29:46;19.70;99.90
4509;DHT22;2267;48.816;9.230;2023-08-01T09:32:14;19.60;99.90
4509;DHT22;2267;48.816;9.230;2023-08-01T09:34:41;19.70;99.90
4509;DHT22;2267;48.816;9.230;2023-08-01T09:37:09;19.70;99.90
4509;DHT22;2267;48.816;9.230;2023-08-01T09:39:36;19.70;99.90
4509;DHT22;2267;48.816;9.230;2023-08-01T09:42:03;19.70;99.90
4509;DHT22;2267;48.816;9.230;2023-08-01T09:44:30;19.70;99.90
4509;DHT22;2267;48.816;9.230;2023-08-01T09:47:04;19.70;99.90
4509;DHT22;2267;48.816;9.230;2023-08-01T09:49:31;19.70;99.90
4509;DHT22;2267;48.816;9.230;2023-08-01T09:51:58;19.80;99.90
4509;DHT22;2267;48.816;9.230;2023-08-01T09:54:26;19.80;99.90
4509;DHT22;2267;48.816;9.230;2023-08-01T09:56:55;19.90;99.90
4509;DHT22;2267;48.816;9.230;2023-08-01T09:59:24;20.00;99.90
4509;DHT22;2267;48.816;9.230;2023-08-01T10:01:53;20.10;99.90
4509;DHT22;2267;48.816;9.230;2023-08-01T10:04:26;20.10;99.90
4509;DHT22;2267;48.816;9.230;2023-08-01T10:07:08;20.10;99.90
4509;DHT22;2267;48.816;9.230;2023-08-01T10:09:36;20.20;99.90
4509;DHT22;2267;48.816;9.230;2023-08-01T10:12:05;20.20;99.90
4509;DHT22;2267;48.816;9.230;2023-08-01T10:14:32;20.20;99.90
4509;DHT22;2267;48.816;9.230;2023-08-01T10:17:00;20.20;99.90
4509;DHT22;2267;48.816;9.230;2023-08-01T10:19:31;20.30;99.90
4509;DHT22;2267;48.816;9.230;2023-08-01T10:21:59;20.30;99.90
4509;DHT22;2267;48.816;9.230;2023-08-01T10:24:27;20.30;99.90
4509;DHT22;2267;48.816;9.230;2023-08-01T10:26:55;20.20;99.90
4509;DHT22;2267;48.816;9.230;2023-08-01T10:29:22;20.30;99.90
4509;DHT22;2267;48.816;9.230;2023-08-01T10:31:54;20.30;99.90
4509;DHT22;2267;48.816;9.230;2023-08-01T10:34:22;20.30;99.90
4509;DHT22;2267;48.816;9.230;2023-08-01T10:36:56;20.30;99.90
4509;DHT22;2267;48.816;9.230;2023-08-01T10:39:24;20.30;99.90
4509;DHT22;2267;48.816;9.230;2023-08-01T10:41:59;20.20;99.90
4509;DHT22;2267;48.816;9.230;2023-08-01T10:44:27;20.20;99.90
4509;DHT22;2267;48.816;9.230;2023-08-01T10:47:03;20.30;99.90
4509;DHT22;2267;48.816;9.230;2023-08-01T10:49:38;20.30;99.90
4509;DHT22;2267;48.816;9.230;2023-08-01T10:52:20;20.30;99.90
4509;DHT22;2267;48.816;9.230;2023-08-01T10:55:00;20.40;99.90
4509;DHT22;2267;48.816;9.230;2023-08-01T10:57:28;20.40;99.90
4509;DHT22;2267;48.816;9.230;2023-08-01T10:59:57;20.50;99.90
4509;DHT22;2267;48.816;9.230;2023-08-01T11:02:28;20.60;99.90
4509;DHT22;2267;48.816;9.230;2023-08-01T11:05:06;20.60;99.90
4509;DHT22;2267;48.816;9.230;2023-08-01T11:07:34;20.70;99.90
4509;DHT22;2267;48.816;9.230;2023-08-01T11:10:06;20.90;99.90
4509;DHT22;2267;48.816;9.230;2023-08-01T11:12:38;21.00;99.90
4509;DHT22;2267;48.816;9.230;2023-08-01T11:15:07;21.10;99.90
4509;DHT22;2267;48.816;9.230;2023-08-01T11:17:36;21.30;99.90
4509;DHT22;2267;48.816;9.230;2023-08-01T11:20:07;21.40;99.90
4509;DHT22;2267;48.816;9.230;2023-08-01T11:22:35;21.50;99.90
4509;DHT22;2267;48.816;9.230;2023-08-01T11:25:02;21.60;99.90
4509;DHT22;2267;48.816;9.230;2023-08-01T11:27:30;21.60;99.90
4509;DHT22;2267;48.816;9.230;2023-08-01T11:29:57;21.70;99.90
4509;DHT22;2267;48.816;9.230;2023-08-01T11:32:33;21.70;99.90
4509;DHT22;2267;48.816;9.230;2023-08-01T11:35:02;21.80;99.90
4509;DHT22;2267;48.816;9.230;2023-08-01T11:37:30;22.00;99.90
4509;DHT22;2267;48.816;9.230;2023-08-01T11:39:57;22.20;99.90
4509;DHT22;2267;48.816;9.230;2023-08-01T11:42:25;22.40;99.90
4509;DHT22;2267;48.816;9.230;2023-08-01T11:45:07;22.70;99.90
4509;DHT22;2267;48.816;9.230;2023-08-01T11:47:34;22.80;99.90
4509;DHT22;2267;48.816;9.230;2023-08-01T11:50:02;22.90;99.90
4509;DHT22;2267;48.816;9.230;2023-08-01T11:52:29;22.90;99.90
4509;DHT22;2267;48.816;9.230;2023-08-01T11:54:56;22.80;99.90
4509;DHT22;2267;48.816;9.230;2023-08-01T11:57:23;22.80;99.90
4509;DHT22;2267;48.816;9.230;2023-08-01T11:59:53;22.80;99.90
4509;DHT22;2267;48.816;9.230;2023-08-01T12:02:25;22.80;99.90
4509;DHT22;2267;48.816;9.230;2023-08-01T12:04:53;22.70;99.90
4509;DHT22;2267;48.816;9.230;2023-08-01T12:07:20;22.60;99.80
4509;DHT22;2267;48.816;9.230;2023-08-01T12:09:57;22.60;99.90
4509;DHT22;2267;48.816;9.230;2023-08-01T12:12:26;22.60;99.90
4509;DHT22;2267;48.816;9.230;2023-08-01T12:14:54;22.80;99.90
4509;DHT22;2267;48.816;9.230;2023-08-01T12:17:25;23.10;99.90
4509;DHT22;2267;48.816;9.230;2023-08-01T12:19:52;23.20;99.50
4509;DHT22;2267;48.816;9.230;2023-08-01T12:22:19;23.10;99.00
4509;DHT22;2267;48.816;9.230;2023-08-01T12:24:46;23.10;98.20
4509;DHT22;2267;48.816;9.230;2023-08-01T12:27:13;23.00;98.20
4509;DHT22;2267;48.816;9.230;2023-08-01T12:29:39;23.00;98.30
4509;DHT22;2267;48.816;9.230;2023-08-01T12:32:06;23.10;98.00
4509;DHT22;2267;48.816;9.230;2023-08-01T12:34:34;23.20;98.00
4509;DHT22;2267;48.816;9.230;2023-08-01T12:37:01;23.30;97.80
4509;DHT22;2267;48.816;9.230;2023-08-01T12:39:28;23.30;96.00
4509;DHT22;2267;48.816;9.230;2023-08-01T12:41:55;23.40;96.40
4509;DHT22;2267;48.816;9.230;2023-08-01T12:44:22;23.50;95.90
4509;DHT22;2267;48.816;9.230;2023-08-01T12:46:49;23.50;96.00
4509;DHT22;2267;48.816;9.230;2023-08-01T12:49:18;23.60;94.80
4509;DHT22;2267;48.816;9.230;2023-08-01T12:51:45;23.80;95.10
4509;DHT22;2267;48.816;9.230;2023-08-01T12:54:14;24.00;95.40
4509;DHT22;2267;48.816;9.230;2023-08-01T12:56:41;24.20;95.00
4509;DHT22;2267;48.816;9.230;2023-08-01T12:59:08;24.30;94.70
4509;DHT22;2267;48.816;9.230;2023-08-01T13:01:35;24.30;94.80
4509;DHT22;2267;48.816;9.230;2023-08-01T13:04:02;24.50;94.50
4509;DHT22;2267;48.816;9.230;2023-08-01T13:06:29;24.40;93.50
4509;DHT22;2267;48.816;9.230;2023-08-01T13:08:55;24.40;93.10
4509;DHT22;2267;48.816;9.230;2023-08-01T13:11:22;24.40;93.00
4509;DHT22;2267;48.816;9.230;2023-08-01T13:13:49;24.40;92.80
4509;DHT22;2267;48.816;9.230;2023-08-01T13:16:16;24.30;92.90
4509;DHT22;2267;48.816;9.230;2023-08-01T13:18:43;24.20;92.70
4509;DHT22;2267;48.816;9.230;2023-08-01T13:21:11;24.30;92.30
4509;DHT22;2267;48.816;9.230;2023-08-01T13:23:38;24.40;92.20
4509;DHT22;2267;48.816;9.230;2023-08-01T13:26:05;24.50;91.90
4509;DHT22;2267;48.816;9.230;2023-08-01T13:28:32;24.70;92.20
4509;DHT22;2267;48.816;9.230;2023-08-01T13:30:59;24.90;92.00
4509;DHT22;2267;48.816;9.230;2023-08-01T13:33:26;25.00;89.80
4509;DHT22;2267;48.816;9.230;2023-08-01T13:35:53;25.20;88.20
4509;DHT22;2267;48.816;9.230;2023-08-01T13:38:20;25.20;87.70
4509;DHT22;2267;48.816;9.230;2023-08-01T13:40:47;25.10;88.80
4509;DHT22;2267;48.816;9.230;2023-08-01T13:43:14;25.10;87.10
4509;DHT22;2267;48.816;9.230;2023-08-01T13:45:41;25.20;86.40
4509;DHT22;2267;48.816;9.230;2023-08-01T13:48:08;25.20;85.50
4509;DHT22;2267;48.816;9.230;2023-08-01T13:50:35;25.30;86.50
4509;DHT22;2267;48.816;9.230;2023-08-01T13:53:02;25.40;85.50
4509;DHT22;2267;48.816;9.230;2023-08-01T13:55:29;25.50;86.20
4509;DHT22;2267;48.816;9.230;2023-08-01T13:57:56;25.60;86.20
4509;DHT22;2267;48.816;9.230;2023-08-01T14:00:22;25.70;85.90
4509;DHT22;2267;48.816;9.230;2023-08-01T14:02:50;25.70;83.10
4509;DHT22;2267;48.816;9.230;2023-08-01T14:05:18;25.70;84.40
4509;DHT22;2267;48.816;9.230;2023-08-01T14:07:45;25.80;84.60
4509;DHT22;2267;48.816;9.230;2023-08-01T14:10:12;25.90;82.80
4509;DHT22;2267;48.816;9.230;2023-08-01T14:12:41;26.00;83.00
4509;DHT22;2267;48.816;9.230;2023-08-01T14:15:08;26.10;82.70
4509;DHT22;2267;48.816;9.230;2023-08-01T14:17:35;26.10;83.40
4509;DHT22;2267;48.816;9.230;2023-08-01T14:20:03;26.20;83.30
4509;DHT22;2267;48.816;9.230;2023-08-01T14:22:31;26.30;82.40
4509;DHT22;2267;48.816;9.230;2023-08-01T14:24:57;26.30;81.60
4509;DHT22;2267;48.816;9.230;2023-08-01T14:27:24;26.30;81.80
4509;DHT22;2267;48.816;9.230;2023-08-01T14:29:51;26.30;79.60
4509;DHT22;2267;48.816;9.230;2023-08-01T14:32:18;26.40;79.70
4509;DHT22;2267;48.816;9.230;2023-08-01T14:34:46;26.30;78.90
4509;DHT22;2267;48.816;9.230;2023-08-01T14:37:12;26.50;79.70
4509;DHT22;2267;48.816;9.230;2023-08-01T14:39:39;26.50;78.80
4509;DHT22;2267;48.816;9.230;2023-08-01T14:42:06;26.40;77.00
4509;DHT22;2267;48.816;9.230;2023-08-01T14:44:33;26.30;78.90
4509;DHT22;2267;48.816;9.230;2023-08-01T14:47:00;26.20;77.80
4509;DHT22;2267;48.816;9.230;2023-08-01T14:49:27;26.30;79.90
4509;DHT22;2267;48.816;9.230;2023-08-01T14:51:56;26.40;78.10
4509;DHT22;2267;48.816;9.230;2023-08-01T14:54:23;26.50;76.80
4509;DHT22;2267;48.816;9.230;2023-08-01T14:57:05;26.50;75.90
4509;DHT22;2267;48.816;9.230;2023-08-01T14:59:32;26.60;73.70
4509;DHT22;2267;48.816;9.230;2023-08-01T15:01:59;26.50;74.10
4509;DHT22;2267;48.816;9.230;2023-08-01T15:04:26;26.60;74.50
4509;DHT22;2267;48.816;9.230;2023-08-01T15:06:53;26.60;73.50
4509;DHT22;2267;48.816;9.230;2023-08-01T15:09:21;26.50;72.00
4509;DHT22;2267;48.816;9.230;2023-08-01T15:11:48;26.60;72.40
4509;DHT22;2267;48.816;9.230;2023-08-01T15:14:14;26.60;72.30
4509;DHT22;2267;48.816;9.230;2023-08-01T15:16:41;26.70;73.60
4509;DHT22;2267;48.816;9.230;2023-08-01T15:19:09;26.70;72.60
4509;DHT22;2267;48.816;9.230;2023-08-01T15:21:35;26.50;73.50
4509;DHT22;2267;48.816;9.230;2023-08-01T15:24:02;26.30;73.00
4509;DHT22;2267;48.816;9.230;2023-08-01T15:26:29;26.30;72.60
4509;DHT22;2267;48.816;9.230;2023-08-01T15:28:56;26.20;73.10
4509;DHT22;2267;48.816;9.230;2023-08-01T15:31:23;26.20;73.20
4509;DHT22;2267;48.816;9.230;2023-08-01T15:33:51;26.20;72.90
4509;DHT22;2267;48.816;9.230;2023-08-01T15:36:25;26.10;73.40
4509;DHT22;2267;48.816;9.230;2023-08-01T15:38:53;26.20;74.60
4509;DHT22;2267;48.816;9.230;2023-08-01T15:41:19;26.30;74.60
4509;DHT22;2267;48.816;9.230;2023-08-01T15:43:46;26.30;75.30
4509;DHT22;2267;48.816;9.230;2023-08-01T15:46:13;26.20;74.40
4509;DHT22;2267;48.816;9.230;2023-08-01T15:48:40;26.20;74.80
4509;DHT22;2267;48.816;9.230;2023-08-01T15:51:07;26.00;75.60
4509;DHT22;2267;48.816;9.230;2023-08-01T15:53:34;26.00;76.10
4509;DHT22;2267;48.816;9.230;2023-08-01T15:56:04;26.00;75.10
4509;DHT22;2267;48.816;9.230;2023-08-01T15:58:31;26.00;75.50
4509;DHT22;2267;48.816;9.230;2023-08-01T16:00:59;26.00;76.20
4509;DHT22;2267;48.816;9.230;2023-08-01T16:03:26;26.00;75.30
4509;DHT22;2267;48.816;9.230;2023-08-01T16:05:54;26.00;75.70